sensor_id;sensor_type;location;lat;lon;timestamp;pressure;altitude;pressure_sealevel;temperature;humidity
77855;BME280;67046;50.088;14.336;2023-05-10T00:00:16;97140.05;;;11.85;51.76
77855;BME280;67046;50.088;14.336;2023-05-10T00:01:08;97144.54;;;11.83;51.85
77855;BME280;67046;50.088;14.336;2023-05-10T00:01:39;97144.36;;;11.81;51.79
77855;BME280;67046;50.088;14.336;2023-05-10T00:02:11;97144.71;;;11.80;51.62
77855;BME280;67046;50.088;14.336;2023-05-10T00:02:42;97141.00;;;11.80;51.66
77855;BME280;67046;50.088;14.336;2023-05-10T00:03:13;97141.48;;;11.79;51.51
77855;BME280;67046;50.088;14.336;2023-05-10T00:03:45;97141.80;;;11.78;51.77
77855;BME280;67046;50.088;14.336;2023-05-10T00:04:16;97141.27;;;11.78;51.53
77855;BME280;67046;50.088;14.336;2023-05-10T00:04:47;97142.31;;;11.77;52.31
77855;BME280;67046;50.088;14.336;2023-05-10T00:05:19;97138.49;;;11.76;52.19
77855;BME280;67046;50.088;14.336;2023-05-10T00:05:50;97137.73;;;11.74;51.83
77855;BME280;67046;50.088;14.336;2023-05-10T00:06:21;97134.23;;;11.72;51.67
77855;BME280;67046;50.088;14.336;2023-05-10T00:06:53;97138.83;;;11.72;51.80
77855;BME280;67046;50.088;14.336;2023-05-10T00:07:24;97139.88;;;11.71;51.84
77855;BME280;67046;50.088;14.336;2023-05-10T00:07:56;97139.67;;;11.70;52.01
77855;BME280;67046;50.088;14.336;2023-05-10T00:08:27;97138.33;;;11.69;51.63
77855;BME280;67046;50.088;14.336;2023-05-10T00:08:58;97134.86;;;11.67;52.02
77855;BME280;67046;50.088;14.336;2023-05-10T00:09:29;97140.71;;;11.65;52.44
77855;BME280;67046;50.088;14.336;2023-05-10T00:10:01;97135.61;;;11.63;52.26
77855;BME280;67046;50.088;14.336;2023-05-10T00:10:32;97134.23;;;11.61;52.34
77855;BME280;67046;50.088;14.336;2023-05-10T00:11:03;97136.02;;;11.60;52.00
77855;BME280;67046;50.088;14.336;2023-05-10T00:11:35;97135.48;;;11.58;52.25
77855;BME280;67046;50.088;14.336;2023-05-10T00:12:06;97135.45;;;11.56;52.18
77855;BME280;67046;50.088;14.336;2023-05-10T00:12:37;97131.95;;;11.55;52.44
77855;BME280;67046;50.088;14.336;2023-05-10T00:13:08;97136.66;;;11.54;52.08
77855;BME280;67046;50.088;14.336;2023-05-10T00:13:40;97134.31;;;11.54;52.36
77855;BME280;67046;50.088;14.336;2023-05-10T00:14:11;97131.10;;;11.53;52.59
77855;BME280;67046;50.088;14.336;2023-05-10T00:14:42;97136.48;;;11.52;52.27
77855;BME280;67046;50.088;14.336;2023-05-10T00:15:14;97134.01;;;11.52;52.28
77855;BME280;67046;50.088;14.336;2023-05-10T00:15:45;97135.90;;;11.51;52.26
77855;BME280;67046;50.088;14.336;2023-05-10T00:16:16;97132.08;;;11.50;52.21
77855;BME280;67046;50.088;14.336;2023-05-10T00:16:48;97132.83;;;11.50;51.93
77855;BME280;67046;50.088;14.336;2023-05-10T00:17:19;97129.90;;;11.49;52.68
77855;BME280;67046;50.088;14.336;2023-05-10T00:17:50;97130.96;;;11.49;52.23
77855;BME280;67046;50.088;14.336;2023-05-10T00:18:21;97127.52;;;11.49;52.34
77855;BME280;67046;50.088;14.336;2023-05-10T00:18:52;97126.45;;;11.49;52.32
77855;BME280;67046;50.088;14.336;2023-05-10T00:19:24;97126.23;;;11.48;52.55
77855;BME280;67046;50.088;14.336;2023-05-10T00:19:55;97128.41;;;11.47;52.41
77855;BME280;67046;50.088;14.336;2023-05-10T00:20:27;97127.23;;;11.45;52.35
77855;BME280;67046;50.088;14.336;2023-05-10T00:20:58;97125.27;;;11.45;52.77
77855;BME280;67046;50.088;14.336;2023-05-10T00:21:29;97127.37;;;11.43;52.84
77855;BME280;67046;50.088;14.336;2023-05-10T00:22:00;97126.73;;;11.43;52.52
77855;BME280;67046;50.088;14.336;2023-05-10T00:22:33;97129.58;;;11.43;52.80
77855;BME280;67046;50.088;14.336;2023-05-10T00:23:04;97128.09;;;11.43;52.89
77855;BME280;67046;50.088;14.336;2023-05-10T00:23:36;97127.67;;;11.42;52.85
77855;BME280;67046;50.088;14.336;2023-05-10T00:24:07;97130.73;;;11.41;52.74
77855;BME280;67046;50.088;14.336;2023-05-10T00:24:38;97130.30;;;11.41;52.65
77855;BME280;67046;50.088;14.336;2023-05-10T00:25:10;97127.34;;;11.40;53.05
77855;BME280;67046;50.088;14.336;2023-05-10T00:25:41;97130.29;;;11.40;52.94
77855;BME280;67046;50.088;14.336;2023-05-10T00:26:13;97128.08;;;11.39;52.73
77855;BME280;67046;50.088;14.336;2023-05-10T00:26:44;97127.74;;;11.38;53.07
77855;BME280;67046;50.088;14.336;2023-05-10T00:27:15;97128.95;;;11.37;52.46
77855;BME280;67046;50.088;14.336;2023-05-10T00:27:47;97132.08;;;11.36;53.16
77855;BME280;67046;50.088;14.336;2023-05-10T00:28:18;97129.94;;;11.37;53.06
77855;BME280;67046;50.088;14.336;2023-05-10T00:28:49;97128.85;;;11.36;52.85
77855;BME280;67046;50.088;14.336;2023-05-10T00:29:21;97130.16;;;11.35;53.17
77855;BME280;67046;50.088;14.336;2023-05-10T00:29:52;97133.70;;;11.36;53.03
77855;BME280;67046;50.088;14.336;2023-05-10T00:30:23;97131.84;;;11.35;52.95
77855;BME280;67046;50.088;14.336;2023-05-10T00:30:55;97130.67;;;11.34;53.17
77855;BME280;67046;50.088;14.336;2023-05-10T00:31:26;97132.27;;;11.33;53.24
77855;BME280;67046;50.088;14.336;2023-05-10T00:31:57;97132.84;;;11.33;53.10
77855;BME280;67046;50.088;14.336;2023-05-10T00:32:29;97131.23;;;11.32;52.65
77855;BME280;67046;50.088;14.336;2023-05-10T00:33:00;97128.44;;;11.32;52.78
77855;BME280;67046;50.088;14.336;2023-05-10T00:33:31;97129.58;;;11.31;52.61
77855;BME280;67046;50.088;14.336;2023-05-10T00:34:03;97125.14;;;11.31;52.48
77855;BME280;67046;50.088;14.336;2023-05-10T00:34:34;97131.44;;;11.31;53.00
77855;BME280;67046;50.088;14.336;2023-05-10T00:35:05;97130.17;;;11.30;53.04
77855;BME280;67046;50.088;14.336;2023-05-10T00:35:37;97129.13;;;11.28;53.01
77855;BME280;67046;50.088;14.336;2023-05-10T00:36:08;97125.04;;;11.26;53.47
77855;BME280;67046;50.088;14.336;2023-05-10T00:36:40;97129.37;;;11.24;53.24
77855;BME280;67046;50.088;14.336;2023-05-10T00:37:11;97124.86;;;11.23;53.62
77855;BME280;67046;50.088;14.336;2023-05-10T00:37:42;97125.86;;;11.22;53.37
77855;BME280;67046;50.088;14.336;2023-05-10T00:38:14;97125.27;;;11.21;53.12
77855;BME280;67046;50.088;14.336;2023-05-10T00:38:45;97124.30;;;11.21;52.98
77855;BME280;67046;50.088;14.336;2023-05-10T00:39:16;97123.09;;;11.21;53.25
77855;BME280;67046;50.088;14.336;2023-05-10T00:39:47;97123.71;;;11.20;53.51
77855;BME280;67046;50.088;14.336;2023-05-10T00:40:19;97124.62;;;11.20;53.03
77855;BME280;67046;50.088;14.336;2023-05-10T00:40:50;97122.61;;;11.21;53.36
77855;BME280;67046;50.088;14.336;2023-05-10T00:41:21;97121.60;;;11.20;53.33
77855;BME280;67046;50.088;14.336;2023-05-10T00:41:52;97123.88;;;11.20;53.10
77855;BME280;67046;50.088;14.336;2023-05-10T00:42:23;97117.80;;;11.20;53.56
77855;BME280;67046;50.088;14.336;2023-05-10T00:42:55;97121.19;;;11.19;53.40
77855;BME280;67046;50.088;14.336;2023-05-10T00:43:26;97119.81;;;11.19;53.35
77855;BME280;67046;50.088;14.336;2023-05-10T00:43:58;97120.64;;;11.18;53.13
77855;BME280;67046;50.088;14.336;2023-05-10T00:44:29;97119.11;;;11.19;53.33
77855;BME280;67046;50.088;14.336;2023-05-10T00:45:02;97121.40;;;11.19;52.95
77855;BME280;67046;50.088;14.336;2023-05-10T00:45:35;97120.70;;;11.19;53.13
77855;BME280;67046;50.088;14.336;2023-05-10T00:46:07;97117.46;;;11.18;53.51
77855;BME280;67046;50.088;14.336;2023-05-10T00:46:38;97115.06;;;11.17;53.33
77855;BME280;67046;50.088;14.336;2023-05-10T00:47:10;97119.71;;;11.16;53.48
77855;BME280;67046;50.088;14.336;2023-05-10T00:47:42;97118.75;;;11.14;53.17
77855;BME280;67046;50.088;14.336;2023-05-10T00:48:13;97118.46;;;11.12;53.43
77855;BME280;67046;50.088;14.336;2023-05-10T00:48:45;97118.03;;;11.12;53.43
77855;BME280;67046;50.088;14.336;2023-05-10T00:49:16;97115.92;;;11.12;53.32
77855;BME280;67046;50.088;14.336;2023-05-10T00:49:48;97113.11;;;11.11;53.25
77855;BME280;67046;50.088;14.336;2023-05-10T00:50:19;97112.15;;;11.10;53.71
77855;BME280;67046;50.088;14.336;2023-05-10T00:50:51;97110.73;;;11.10;53.43
77855;BME280;67046;50.088;14.336;2023-05-10T00:51:22;97112.14;;;11.09;53.78
77855;BME280;67046;50.088;14.336;2023-05-10T00:51:53;97108.44;;;11.08;53.67
77855;BME280;67046;50.088;14.336;2023-05-10T00:52:25;97106.30;;;11.07;53.67
77855;BME280;67046;50.088;14.336;2023-05-10T00:52:58;97105.87;;;11.05;53.81
77855;BME280;67046;50.088;14.336;2023-05-10T00:53:31;97107.28;;;11.04;53.87
77855;BME280;67046;50.088;14.336;2023-05-10T00:54:03;97106.48;;;11.04;53.87
77855;BME280;67046;50.088;14.336;2023-05-10T00:54:34;97109.39;;;11.03;53.66
77855;BME280;67046;50.088;14.336;2023-05-10T00:55:06;97108.54;;;11.02;54.11
77855;BME280;67046;50.088;14.336;2023-05-10T00:55:38;97111.77;;;11.02;54.06
77855;BME280;67046;50.088;14.336;2023-05-10T00:56:09;97108.04;;;11.01;54.00
77855;BME280;67046;50.088;14.336;2023-05-10T00:56:41;97108.14;;;11.01;53.76
77855;BME280;67046;50.088;14.336;2023-05-10T00:57:12;97108.41;;;11.00;53.93
77855;BME280;67046;50.088;14.336;2023-05-10T00:57:44;97109.41;;;11.00;53.55
77855;BME280;67046;50.088;14.336;2023-05-10T00:58:15;97111.42;;;10.99;54.04
77855;BME280;67046;50.088;14.336;2023-05-10T00:58:46;97107.06;;;10.98;53.82
77855;BME280;67046;50.088;14.336;2023-05-10T00:59:18;97111.77;;;10.98;53.88
77855;BME280;67046;50.088;14.336;2023-05-10T00:59:50;97109.13;;;10.97;54.35
77855;BME280;67046;50.088;14.336;2023-05-10T01:00:21;97106.27;;;10.97;53.87
77855;BME280;67046;50.088;14.336;2023-05-10T01:00:54;97109.48;;;10.95;53.94
77855;BME280;67046;50.088;14.336;2023-05-10T01:01:28;97107.30;;;10.95;53.98
77855;BME280;67046;50.088;14.336;2023-05-10T01:02:00;97107.25;;;10.94;54.23
77855;BME280;67046;50.088;14.336;2023-05-10T01:02:33;97108.18;;;10.92;54.16
77855;BME280;67046;50.088;14.336;2023-05-10T01:03:04;97108.85;;;10.91;54.04
77855;BME280;67046;50.088;14.336;2023-05-10T01:03:36;97109.95;;;10.89;54.02
77855;BME280;67046;50.088;14.336;2023-05-10T01:04:09;97111.20;;;10.88;54.12
77855;BME280;67046;50.088;14.336;2023-05-10T01:04:42;97112.14;;;10.87;54.34
77855;BME280;67046;50.088;14.336;2023-05-10T01:05:14;97105.20;;;10.85;54.23
77855;BME280;67046;50.088;14.336;2023-05-10T01:05:45;97104.68;;;10.82;54.34
77855;BME280;67046;50.088;14.336;2023-05-10T01:06:16;97101.11;;;10.79;54.31
77855;BME280;67046;50.088;14.336;2023-05-10T01:06:47;97110.67;;;10.78;54.23
77855;BME280;67046;50.088;14.336;2023-05-10T01:07:19;97102.42;;;10.78;54.48
77855;BME280;67046;50.088;14.336;2023-05-10T01:07:50;97105.39;;;10.78;54.22
77855;BME280;67046;50.088;14.336;2023-05-10T01:08:22;97103.70;;;10.78;54.52
77855;BME280;67046;50.088;14.336;2023-05-10T01:08:53;97103.48;;;10.78;54.28
77855;BME280;67046;50.088;14.336;2023-05-10T01:09:24;97102.70;;;10.79;54.15
77855;BME280;67046;50.088;14.336;2023-05-10T01:09:57;97103.29;;;10.79;54.37
77855;BME280;67046;50.088;14.336;2023-05-10T01:10:29;97102.71;;;10.80;54.29
77855;BME280;67046;50.088;14.336;2023-05-10T01:11:00;97108.16;;;10.81;54.06
77855;BME280;67046;50.088;14.336;2023-05-10T01:11:35;97102.30;;;10.80;54.27
77855;BME280;67046;50.088;14.336;2023-05-10T01:12:07;97107.64;;;10.81;54.16
77855;BME280;67046;50.088;14.336;2023-05-10T01:12:40;97106.45;;;10.79;54.24
77855;BME280;67046;50.088;14.336;2023-05-10T01:13:12;97106.67;;;10.80;54.55
77855;BME280;67046;50.088;14.336;2023-05-10T01:13:50;97108.15;;;10.79;54.40
77855;BME280;67046;50.088;14.336;2023-05-10T01:14:22;97106.66;;;10.78;54.60
77855;BME280;67046;50.088;14.336;2023-05-10T01:14:54;97103.65;;;10.77;54.37
77855;BME280;67046;50.088;14.336;2023-05-10T01:15:26;97101.58;;;10.77;54.50
77855;BME280;67046;50.088;14.336;2023-05-10T01:15:58;97103.05;;;10.76;54.49
77855;BME280;67046;50.088;14.336;2023-05-10T01:16:32;97102.99;;;10.77;54.55
77855;BME280;67046;50.088;14.336;2023-05-10T01:17:06;97103.77;;;10.75;54.29
77855;BME280;67046;50.088;14.336;2023-05-10T01:17:40;97103.02;;;10.74;54.29
77855;BME280;67046;50.088;14.336;2023-05-10T01:18:15;97105.60;;;10.73;54.69
77855;BME280;67046;50.088;14.336;2023-05-10T01:18:49;97102.31;;;10.71;54.93
77855;BME280;67046;50.088;14.336;2023-05-10T01:19:23;97101.55;;;10.71;54.81
77855;BME280;67046;50.088;14.336;2023-05-10T01:19:55;97101.60;;;10.71;54.59
77855;BME280;67046;50.088;14.336;2023-05-10T01:20:35;97103.29;;;10.70;54.39
77855;BME280;67046;50.088;14.336;2023-05-10T01:21:19;97104.75;;;10.68;54.61
77855;BME280;67046;50.088;14.336;2023-05-10T01:24:29;97102.58;;;10.62;55.03
77855;BME280;67046;50.088;14.336;2023-05-10T01:25:29;97101.80;;;10.58;54.84
77855;BME280;67046;50.088;14.336;2023-05-10T01:30:56;97097.25;;;10.48;55.14
77855;BME280;67046;50.088;14.336;2023-05-10T01:33:23;97097.27;;;10.42;55.20
77855;BME280;67046;50.088;14.336;2023-05-10T01:33:59;97096.65;;;10.39;55.44
77855;BME280;67046;50.088;14.336;2023-05-10T01:34:36;97097.18;;;10.38;55.55
77855;BME280;67046;50.088;14.336;2023-05-10T01:35:17;97092.16;;;10.37;55.71
77855;BME280;67046;50.088;14.336;2023-05-10T01:37:31;97094.16;;;10.34;55.62
77855;BME280;67046;50.088;14.336;2023-05-10T01:38:59;97092.08;;;10.31;55.65
77855;BME280;67046;50.088;14.336;2023-05-10T01:39:54;97094.29;;;10.30;55.66
77855;BME280;67046;50.088;14.336;2023-05-10T01:41:24;97088.48;;;10.27;55.72
77855;BME280;67046;50.088;14.336;2023-05-10T01:42:00;97090.53;;;10.27;56.04
77855;BME280;67046;50.088;14.336;2023-05-10T01:42:46;97090.20;;;10.24;56.01
77855;BME280;67046;50.088;14.336;2023-05-10T01:43:26;97093.11;;;10.24;56.03
77855;BME280;67046;50.088;14.336;2023-05-10T01:44:42;97088.52;;;10.24;55.68
77855;BME280;67046;50.088;14.336;2023-05-10T01:45:27;97088.11;;;10.23;55.87
77855;BME280;67046;50.088;14.336;2023-05-10T01:46:07;97083.98;;;10.21;56.02
77855;BME280;67046;50.088;14.336;2023-05-10T01:46:43;97085.08;;;10.20;55.99
77855;BME280;67046;50.088;14.336;2023-05-10T01:47:23;97089.45;;;10.20;56.09
77855;BME280;67046;50.088;14.336;2023-05-10T01:48:10;97084.85;;;10.20;56.25
77855;BME280;67046;50.088;14.336;2023-05-10T01:48:52;97083.58;;;10.19;56.20
77855;BME280;67046;50.088;14.336;2023-05-10T01:49:31;97085.94;;;10.17;56.24
77855;BME280;67046;50.088;14.336;2023-05-10T01:50:06;97083.29;;;10.17;56.33
77855;BME280;67046;50.088;14.336;2023-05-10T01:50:40;97085.24;;;10.17;56.40
77855;BME280;67046;50.088;14.336;2023-05-10T01:51:17;97082.91;;;10.17;56.47
77855;BME280;67046;50.088;14.336;2023-05-10T01:51:53;97084.98;;;10.16;56.22
77855;BME280;67046;50.088;14.336;2023-05-10T01:52:33;97080.45;;;10.14;56.39
77855;BME280;67046;50.088;14.336;2023-05-10T01:53:07;97083.94;;;10.14;56.46
77855;BME280;67046;50.088;14.336;2023-05-10T01:53:40;97079.08;;;10.14;56.65
77855;BME280;67046;50.088;14.336;2023-05-10T01:54:14;97082.20;;;10.13;56.51
77855;BME280;67046;50.088;14.336;2023-05-10T01:54:56;97081.72;;;10.13;56.83
77855;BME280;67046;50.088;14.336;2023-05-10T01:55:33;97085.25;;;10.11;56.79
77855;BME280;67046;50.088;14.336;2023-05-10T01:56:07;97083.77;;;10.10;56.70
77855;BME280;67046;50.088;14.336;2023-05-10T01:56:40;97084.54;;;10.10;56.69
77855;BME280;67046;50.088;14.336;2023-05-10T01:57:13;97084.86;;;10.10;56.60
77855;BME280;67046;50.088;14.336;2023-05-10T01:57:48;97084.54;;;10.10;56.68
77855;BME280;67046;50.088;14.336;2023-05-10T01:58:30;97080.04;;;10.09;56.79
77855;BME280;67046;50.088;14.336;2023-05-10T01:59:06;97082.04;;;10.08;56.89
77855;BME280;67046;50.088;14.336;2023-05-10T01:59:40;97081.92;;;10.07;56.66
77855;BME280;67046;50.088;14.336;2023-05-10T02:00:14;97082.50;;;10.07;56.75
77855;BME280;67046;50.088;14.336;2023-05-10T02:00:47;97082.55;;;10.06;57.01
77855;BME280;67046;50.088;14.336;2023-05-10T02:01:21;97082.96;;;10.06;56.94
77855;BME280;67046;50.088;14.336;2023-05-10T02:01:53;97083.65;;;10.06;57.03
77855;BME280;67046;50.088;14.336;2023-05-10T02:02:25;97086.30;;;10.06;56.96
77855;BME280;67046;50.088;14.336;2023-05-10T02:03:00;97082.35;;;10.07;56.79
77855;BME280;67046;50.088;14.336;2023-05-10T02:03:34;97081.45;;;10.07;56.90
77855;BME280;67046;50.088;14.336;2023-05-10T02:04:08;97081.29;;;10.07;56.75
77855;BME280;67046;50.088;14.336;2023-05-10T02:04:41;97083.08;;;10.08;56.89
77855;BME280;67046;50.088;14.336;2023-05-10T02:05:14;97087.31;;;10.08;56.64
77855;BME280;67046;50.088;14.336;2023-05-10T02:05:48;97084.61;;;10.08;56.92
77855;BME280;67046;50.088;14.336;2023-05-10T02:06:21;97086.69;;;10.07;57.00
77855;BME280;67046;50.088;14.336;2023-05-10T02:06:53;97086.40;;;10.07;56.91
77855;BME280;67046;50.088;14.336;2023-05-10T02:07:28;97082.88;;;10.08;56.71
77855;BME280;67046;50.088;14.336;2023-05-10T02:08:00;97084.23;;;10.08;56.92
77855;BME280;67046;50.088;14.336;2023-05-10T02:08:33;97085.27;;;10.08;56.99
77855;BME280;67046;50.088;14.336;2023-05-10T02:09:09;97087.79;;;10.08;56.96
77855;BME280;67046;50.088;14.336;2023-05-10T02:09:44;97085.20;;;10.08;57.15
77855;BME280;67046;50.088;14.336;2023-05-10T02:10:19;97088.24;;;10.06;56.90
77855;BME280;67046;50.088;14.336;2023-05-10T02:10:53;97085.17;;;10.06;57.07
77855;BME280;67046;50.088;14.336;2023-05-10T02:11:27;97087.02;;;10.06;57.14
77855;BME280;67046;50.088;14.336;2023-05-10T02:12:01;97089.80;;;10.05;56.79
77855;BME280;67046;50.088;14.336;2023-05-10T02:12:39;97089.88;;;10.06;57.03
77855;BME280;67046;50.088;14.336;2023-05-10T02:13:12;97090.81;;;10.05;57.04
77855;BME280;67046;50.088;14.336;2023-05-10T02:13:46;97088.30;;;10.06;56.86
77855;BME280;67046;50.088;14.336;2023-05-10T02:14:18;97090.63;;;10.07;56.91
77855;BME280;67046;50.088;14.336;2023-05-10T02:14:52;97089.66;;;10.06;57.15
77855;BME280;67046;50.088;14.336;2023-05-10T02:15:26;97085.11;;;10.06;56.89
77855;BME280;67046;50.088;14.336;2023-05-10T02:15:59;97089.40;;;10.05;56.84
77855;BME280;67046;50.088;14.336;2023-05-10T02:16:31;97087.01;;;10.05;56.96
77855;BME280;67046;50.088;14.336;2023-05-10T02:17:05;97087.58;;;10.05;57.23
77855;BME280;67046;50.088;14.336;2023-05-10T02:17:39;97089.16;;;10.04;57.22
77855;BME280;67046;50.088;14.336;2023-05-10T02:18:11;97085.40;;;10.03;56.95
77855;BME280;67046;50.088;14.336;2023-05-10T02:18:44;97092.89;;;10.03;57.15
77855;BME280;67046;50.088;14.336;2023-05-10T02:19:17;97083.32;;;10.02;57.28
77855;BME280;67046;50.088;14.336;2023-05-10T02:19:51;97087.12;;;10.01;57.26
77855;BME280;67046;50.088;14.336;2023-05-10T02:20:24;97083.67;;;10.01;57.34
77855;BME280;67046;50.088;14.336;2023-05-10T02:20:57;97081.19;;;10.00;57.38
77855;BME280;67046;50.088;14.336;2023-05-10T02:21:30;97086.20;;;9.99;57.51
77855;BME280;67046;50.088;14.336;2023-05-10T02:22:04;97081.45;;;9.99;57.36
77855;BME280;67046;50.088;14.336;2023-05-10T02:22:37;97084.45;;;9.99;57.29
77855;BME280;67046;50.088;14.336;2023-05-10T02:23:09;97083.73;;;9.99;57.53
77855;BME280;67046;50.088;14.336;2023-05-10T02:23:43;97082.50;;;9.99;57.59
77855;BME280;67046;50.088;14.336;2023-05-10T02:24:16;97080.98;;;9.99;57.68
77855;BME280;67046;50.088;14.336;2023-05-10T02:24:49;97081.06;;;9.98;57.36
77855;BME280;67046;50.088;14.336;2023-05-10T02:25:23;97083.16;;;9.97;57.47
77855;BME280;67046;50.088;14.336;2023-05-10T02:25:55;97082.79;;;9.96;57.56
77855;BME280;67046;50.088;14.336;2023-05-10T02:26:28;97084.52;;;9.97;57.57
77855;BME280;67046;50.088;14.336;2023-05-10T02:27:02;97084.73;;;9.95;57.60
77855;BME280;67046;50.088;14.336;2023-05-10T02:27:34;97085.91;;;9.94;57.65
77855;BME280;67046;50.088;14.336;2023-05-10T02:28:08;97083.49;;;9.94;57.46
77855;BME280;67046;50.088;14.336;2023-05-10T02:28:42;97082.73;;;9.93;57.63
77855;BME280;67046;50.088;14.336;2023-05-10T02:29:15;97082.92;;;9.92;57.68
77855;BME280;67046;50.088;14.336;2023-05-10T02:29:47;97085.94;;;9.92;57.65
77855;BME280;67046;50.088;14.336;2023-05-10T02:30:21;97082.02;;;9.91;57.78
77855;BME280;67046;50.088;14.336;2023-05-10T02:30:54;97083.13;;;9.90;57.84
77855;BME280;67046;50.088;14.336;2023-05-10T02:31:26;97083.95;;;9.89;57.76
77855;BME280;67046;50.088;14.336;2023-05-10T02:31:58;97083.78;;;9.89;57.83
77855;BME280;67046;50.088;14.336;2023-05-10T02:32:30;97082.52;;;9.89;57.71
77855;BME280;67046;50.088;14.336;2023-05-10T02:33:03;97085.27;;;9.89;57.92
77855;BME280;67046;50.088;14.336;2023-05-10T02:33:35;97083.48;;;9.90;57.68
77855;BME280;67046;50.088;14.336;2023-05-10T02:34:08;97083.38;;;9.89;57.87
77855;BME280;67046;50.088;14.336;2023-05-10T02:34:42;97081.86;;;9.90;57.88
77855;BME280;67046;50.088;14.336;2023-05-10T02:35:16;97081.52;;;9.89;57.65
77855;BME280;67046;50.088;14.336;2023-05-10T02:35:48;97082.08;;;9.88;57.79
77855;BME280;67046;50.088;14.336;2023-05-10T02:36:22;97078.75;;;9.87;57.78
77855;BME280;67046;50.088;14.336;2023-05-10T02:36:55;97074.90;;;9.87;57.62
77855;BME280;67046;50.088;14.336;2023-05-10T02:37:27;97084.72;;;9.87;57.80
77855;BME280;67046;50.088;14.336;2023-05-10T02:37:59;97079.33;;;9.87;57.77
77855;BME280;67046;50.088;14.336;2023-05-10T02:38:32;97076.42;;;9.86;58.01
77855;BME280;67046;50.088;14.336;2023-05-10T02:39:04;97076.99;;;9.86;57.74
77855;BME280;67046;50.088;14.336;2023-05-10T02:39:41;97077.80;;;9.87;57.73
77855;BME280;67046;50.088;14.336;2023-05-10T02:40:15;97075.09;;;9.86;57.96
77855;BME280;67046;50.088;14.336;2023-05-10T02:40:48;97077.27;;;9.87;57.79
77855;BME280;67046;50.088;14.336;2023-05-10T02:41:21;97073.30;;;9.86;57.68
77855;BME280;67046;50.088;14.336;2023-05-10T02:41:54;97074.80;;;9.87;57.76
77855;BME280;67046;50.088;14.336;2023-05-10T02:42:26;97075.12;;;9.87;57.85
77855;BME280;67046;50.088;14.336;2023-05-10T02:42:59;97072.81;;;9.85;57.77
77855;BME280;67046;50.088;14.336;2023-05-10T02:43:33;97076.70;;;9.84;57.73
77855;BME280;67046;50.088;14.336;2023-05-10T02:44:06;97072.73;;;9.83;58.00
77855;BME280;67046;50.088;14.336;2023-05-10T02:44:40;97073.27;;;9.83;57.94
77855;BME280;67046;50.088;14.336;2023-05-10T02:45:18;97076.95;;;9.83;57.93
77855;BME280;67046;50.088;14.336;2023-05-10T02:45:50;97081.52;;;9.82;58.08
77855;BME280;67046;50.088;14.336;2023-05-10T02:46:21;97077.72;;;9.81;58.22
77855;BME280;67046;50.088;14.336;2023-05-10T02:46:53;97078.50;;;9.80;57.97
77855;BME280;67046;50.088;14.336;2023-05-10T02:47:28;97072.54;;;9.79;58.19
77855;BME280;67046;50.088;14.336;2023-05-10T02:47:59;97076.64;;;9.79;58.30
77855;BME280;67046;50.088;14.336;2023-05-10T02:48:31;97077.30;;;9.78;58.11
77855;BME280;67046;50.088;14.336;2023-05-10T02:49:02;97076.93;;;9.78;58.17
77855;BME280;67046;50.088;14.336;2023-05-10T02:49:34;97078.40;;;9.77;58.16
77855;BME280;67046;50.088;14.336;2023-05-10T02:50:06;97076.02;;;9.77;58.17
77855;BME280;67046;50.088;14.336;2023-05-10T02:50:38;97074.50;;;9.78;58.30
77855;BME280;67046;50.088;14.336;2023-05-10T02:51:16;97075.64;;;9.75;58.33
77855;BME280;67046;50.088;14.336;2023-05-10T02:51:51;97077.36;;;9.73;58.37
77855;BME280;67046;50.088;14.336;2023-05-10T02:52:30;97076.71;;;9.73;58.34
77855;BME280;67046;50.088;14.336;2023-05-10T02:53:11;97074.98;;;9.71;58.50
77855;BME280;67046;50.088;14.336;2023-05-10T02:53:46;97073.02;;;9.70;58.49
77855;BME280;67046;50.088;14.336;2023-05-10T02:54:24;97076.66;;;9.70;58.49
77855;BME280;67046;50.088;14.336;2023-05-10T02:55:01;97081.14;;;9.69;58.41
77855;BME280;67046;50.088;14.336;2023-05-10T02:55:39;97076.59;;;9.69;58.23
77855;BME280;67046;50.088;14.336;2023-05-10T02:56:20;97078.51;;;9.69;58.44
77855;BME280;67046;50.088;14.336;2023-05-10T02:57:00;97073.52;;;9.69;58.76
77855;BME280;67046;50.088;14.336;2023-05-10T02:57:40;97077.20;;;9.66;58.66
77855;BME280;67046;50.088;14.336;2023-05-10T02:58:13;97076.08;;;9.65;58.72
77855;BME280;67046;50.088;14.336;2023-05-10T02:58:44;97076.48;;;9.64;58.81
77855;BME280;67046;50.088;14.336;2023-05-10T02:59:15;97074.90;;;9.64;58.64
77855;BME280;67046;50.088;14.336;2023-05-10T02:59:47;97073.20;;;9.64;58.95
77855;BME280;67046;50.088;14.336;2023-05-10T03:00:18;97072.10;;;9.64;58.93
77855;BME280;67046;50.088;14.336;2023-05-10T03:00:49;97073.61;;;9.64;59.01
77855;BME280;67046;50.088;14.336;2023-05-10T03:01:21;97075.61;;;9.63;58.92
77855;BME280;67046;50.088;14.336;2023-05-10T03:01:52;97072.86;;;9.63;58.78
77855;BME280;67046;50.088;14.336;2023-05-10T03:02:23;97073.98;;;9.62;58.72
77855;BME280;67046;50.088;14.336;2023-05-10T03:02:55;97072.65;;;9.63;58.87
77855;BME280;67046;50.088;14.336;2023-05-10T03:03:26;97072.92;;;9.64;58.91
77855;BME280;67046;50.088;14.336;2023-05-10T03:03:57;97069.67;;;9.64;58.79
77855;BME280;67046;50.088;14.336;2023-05-10T03:04:28;97069.27;;;9.64;58.66
77855;BME280;67046;50.088;14.336;2023-05-10T03:04:59;97069.79;;;9.64;58.75
77855;BME280;67046;50.088;14.336;2023-05-10T03:05:31;97066.98;;;9.64;58.97
77855;BME280;67046;50.088;14.336;2023-05-10T03:06:02;97067.77;;;9.64;59.07
77855;BME280;67046;50.088;14.336;2023-05-10T03:06:33;97065.59;;;9.63;58.97
77855;BME280;67046;50.088;14.336;2023-05-10T03:07:04;97067.22;;;9.63;58.91
77855;BME280;67046;50.088;14.336;2023-05-10T03:07:36;97067.33;;;9.62;58.83
77855;BME280;67046;50.088;14.336;2023-05-10T03:08:07;97068.86;;;9.63;58.80